sensor_id;sensor_type;location;lat;lon;timestamp;P1;durP1;ratioP1;P2;durP2;ratioP2
9970;SDS011;5026;51.494;11.974;2022-12-18T00:01:04;92.73;;;32.20;;
9970;SDS011;5026;51.494;11.974;2022-12-18T00:03:39;84.63;;;28.00;;
9970;SDS011;5026;51.494;11.974;2022-12-18T00:06:08;75.20;;;30.77;;
9970;SDS011;5026;51.494;11.974;2022-12-18T00:08:35;63.43;;;26.77;;
9970;SDS011;5026;51.494;11.974;2022-12-18T00:11:03;56.53;;;21.77;;
9970;SDS011;5026;51.494;11.974;2022-12-18T00:13:30;52.27;;;19.37;;
9970;SDS011;5026;51.494;11.974;2022-12-18T00:16:01;66.43;;;24.90;;
9970;SDS011;5026;51.494;11.974;2022-12-18T00:18:28;56.40;;;22.97;;
9970;SDS011;5026;51.494;11.974;2022-12-18T00:20:57;66.03;;;22.53;;
9970;SDS011;5026;51.494;11.974;2022-12-18T00:23:26;66.13;;;22.23;;
9970;SDS011;5026;51.494;11.974;2022-12-18T00:25:53;39.63;;;15.13;;
9970;SDS011;5026;51.494;11.974;2022-12-18T00:28:20;43.90;;;19.63;;
9970;SDS011;5026;51.494;11.974;2022-12-18T00:30:47;49.40;;;20.90;;
9970;SDS011;5026;51.494;11.974;2022-12-18T00:33:16;44.37;;;19.60;;
9970;SDS011;5026;51.494;11.974;2022-12-18T00:35:43;57.20;;;22.67;;
9970;SDS011;5026;51.494;11.974;2022-12-18T00:38:10;57.30;;;19.83;;
9970;SDS011;5026;51.494;11.974;2022-12-18T00:40:39;61.60;;;24.77;;
9970;SDS011;5026;51.494;11.974;2022-12-18T00:43:06;71.20;;;23.70;;
9970;SDS011;5026;51.494;11.974;2022-12-18T00:45:34;83.80;;;27.03;;
9970;SDS011;5026;51.494;11.974;2022-12-18T00:48:01;60.47;;;23.07;;
9970;SDS011;5026;51.494;11.974;2022-12-18T00:50:28;53.70;;;22.43;;
9970;SDS011;5026;51.494;11.974;2022-12-18T00:52:56;61.47;;;23.63;;
9970;SDS011;5026;51.494;11.974;2022-12-18T00:55:22;55.57;;;22.87;;
9970;SDS011;5026;51.494;11.974;2022-12-18T00:57:52;56.70;;;22.00;;
9970;SDS011;5026;51.494;11.974;2022-12-18T01:00:19;56.93;;;23.13;;
9970;SDS011;5026;51.494;11.974;2022-12-18T01:02:46;55.63;;;21.83;;
9970;SDS011;5026;51.494;11.974;2022-12-18T01:05:14;53.30;;;22.53;;
9970;SDS011;5026;51.494;11.974;2022-12-18T01:07:41;61.83;;;23.57;;
9970;SDS011;5026;51.494;11.974;2022-12-18T01:10:09;58.50;;;24.13;;
9970;SDS011;5026;51.494;11.974;2022-12-18T01:12:39;49.93;;;21.10;;
9970;SDS011;5026;51.494;11.974;2022-12-18T01:15:08;51.40;;;21.77;;
9970;SDS011;5026;51.494;11.974;2022-12-18T01:17:36;53.13;;;22.63;;
9970;SDS011;5026;51.494;11.974;2022-12-18T01:20:04;71.63;;;25.67;;
9970;SDS011;5026;51.494;11.974;2022-12-18T01:22:31;66.90;;;24.07;;
9970;SDS011;5026;51.494;11.974;2022-12-18T01:24:58;63.63;;;23.00;;
9970;SDS011;5026;51.494;11.974;2022-12-18T01:27:25;47.50;;;21.07;;
9970;SDS011;5026;51.494;11.974;2022-12-18T01:29:53;53.00;;;21.70;;
9970;SDS011;5026;51.494;11.974;2022-12-18T01:32:21;36.97;;;15.60;;
9970;SDS011;5026;51.494;11.974;2022-12-18T01:34:48;45.00;;;17.97;;
9970;SDS011;5026;51.494;11.974;2022-12-18T01:37:15;52.17;;;21.93;;
9970;SDS011;5026;51.494;11.974;2022-12-18T01:39:42;48.37;;;19.07;;
9970;SDS011;5026;51.494;11.974;2022-12-18T01:42:11;63.20;;;20.47;;
9970;SDS011;5026;51.494;11.974;2022-12-18T01:44:51;59.80;;;22.00;;
9970;SDS011;5026;51.494;11.974;2022-12-18T01:47:25;57.63;;;22.17;;
9970;SDS011;5026;51.494;11.974;2022-12-18T01:49:56;75.40;;;24.70;;
9970;SDS011;5026;51.494;11.974;2022-12-18T01:52:25;65.10;;;23.47;;
9970;SDS011;5026;51.494;11.974;2022-12-18T01:54:54;62.97;;;22.03;;
9970;SDS011;5026;51.494;11.974;2022-12-18T01:57:23;55.87;;;20.17;;
9970;SDS011;5026;51.494;11.974;2022-12-18T01:59:52;64.77;;;24.23;;
9970;SDS011;5026;51.494;11.974;2022-12-18T02:02:22;54.70;;;18.57;;
9970;SDS011;5026;51.494;11.974;2022-12-18T02:04:51;75.43;;;23.73;;
9970;SDS011;5026;51.494;11.974;2022-12-18T02:07:20;57.93;;;20.97;;
9970;SDS011;5026;51.494;11.974;2022-12-18T02:09:55;71.10;;;24.87;;
9970;SDS011;5026;51.494;11.974;2022-12-18T02:12:25;68.30;;;24.73;;
9970;SDS011;5026;51.494;11.974;2022-12-18T02:15:00;67.10;;;22.73;;
9970;SDS011;5026;51.494;11.974;2022-12-18T02:17:34;63.63;;;25.83;;
9970;SDS011;5026;51.494;11.974;2022-12-18T02:20:07;69.90;;;24.23;;
9970;SDS011;5026;51.494;11.974;2022-12-18T02:22:42;70.80;;;24.33;;
9970;SDS011;5026;51.494;11.974;2022-12-18T02:25:18;68.10;;;23.13;;
9970;SDS011;5026;51.494;11.974;2022-12-18T02:27:55;60.33;;;22.53;;
9970;SDS011;5026;51.494;11.974;2022-12-18T02:30:25;64.87;;;22.90;;
9970;SDS011;5026;51.494;11.974;2022-12-18T02:32:53;72.80;;;26.30;;
9970;SDS011;5026;51.494;11.974;2022-12-18T02:35:23;65.47;;;24.53;;
9970;SDS011;5026;51.494;11.974;2022-12-18T02:37:53;71.63;;;24.83;;
9970;SDS011;5026;51.494;11.974;2022-12-18T02:40:22;72.63;;;26.53;;
9970;SDS011;5026;51.494;11.974;2022-12-18T02:42:50;77.73;;;25.53;;
9970;SDS011;5026;51.494;11.974;2022-12-18T02:45:19;67.07;;;22.27;;
9970;SDS011;5026;51.494;11.974;2022-12-18T02:47:47;66.53;;;21.13;;
9970;SDS011;5026;51.494;11.974;2022-12-18T02:50:16;66.50;;;22.50;;
9970;SDS011;5026;51.494;11.974;2022-12-18T02:52:52;74.30;;;23.03;;
9970;SDS011;5026;51.494;11.974;2022-12-18T02:55:29;64.60;;;22.17;;
9970;SDS011;5026;51.494;11.974;2022-12-18T02:58:07;64.67;;;20.53;;
9970;SDS011;5026;51.494;11.974;2022-12-18T03:00:41;65.57;;;22.67;;
9970;SDS011;5026;51.494;11.974;2022-12-18T03:03:14;67.93;;;22.77;;
9970;SDS011;5026;51.494;11.974;2022-12-18T03:05:47;85.63;;;27.77;;
9970;SDS011;5026;51.494;11.974;2022-12-18T03:08:20;66.37;;;22.60;;
9970;SDS011;5026;51.494;11.974;2022-12-18T03:10:49;59.93;;;22.83;;
9970;SDS011;5026;51.494;11.974;2022-12-18T03:13:23;63.33;;;20.17;;
9970;SDS011;5026;51.494;11.974;2022-12-18T03:15:56;61.00;;;20.40;;
9970;SDS011;5026;51.494;11.974;2022-12-18T03:18:26;58.30;;;21.17;;
9970;SDS011;5026;51.494;11.974;2022-12-18T03:20:57;46.53;;;16.60;;
9970;SDS011;5026;51.494;11.974;2022-12-18T03:23:29;53.10;;;19.73;;
9970;SDS011;5026;51.494;11.974;2022-12-18T03:26:07;57.13;;;19.90;;
9970;SDS011;5026;51.494;11.974;2022-12-18T03:28:36;52.97;;;19.30;;
9970;SDS011;5026;51.494;11.974;2022-12-18T03:31:08;47.40;;;19.07;;
9970;SDS011;5026;51.494;11.974;2022-12-18T03:33:39;49.67;;;17.47;;
9970;SDS011;5026;51.494;11.974;2022-12-18T03:36:08;61.53;;;20.67;;
9970;SDS011;5026;51.494;11.974;2022-12-18T03:38:35;41.40;;;16.20;;
9970;SDS011;5026;51.494;11.974;2022-12-18T03:41:04;48.60;;;20.47;;
9970;SDS011;5026;51.494;11.974;2022-12-18T03:43:41;47.17;;;17.83;;
9970;SDS011;5026;51.494;11.974;2022-12-18T03:46:17;51.27;;;17.67;;
9970;SDS011;5026;51.494;11.974;2022-12-18T03:48:51;68.87;;;23.13;;
9970;SDS011;5026;51.494;11.974;2022-12-18T03:51:23;64.10;;;22.23;;
9970;SDS011;5026;51.494;11.974;2022-12-18T03:53:56;51.30;;;19.70;;
9970;SDS011;5026;51.494;11.974;2022-12-18T03:56:26;57.63;;;20.57;;
9970;SDS011;5026;51.494;11.974;2022-12-18T03:58:56;50.83;;;20.37;;
9970;SDS011;5026;51.494;11.974;2022-12-18T04:01:28;41.83;;;17.17;;
9970;SDS011;5026;51.494;11.974;2022-12-18T04:03:57;50.30;;;18.03;;
9970;SDS011;5026;51.494;11.974;2022-12-18T04:06:26;54.83;;;19.30;;
9970;SDS011;5026;51.494;11.974;2022-12-18T04:08:53;46.90;;;16.70;;
9970;SDS011;5026;51.494;11.974;2022-12-18T04:11:20;51.60;;;19.00;;
9970;SDS011;5026;51.494;11.974;2022-12-18T04:13:48;48.23;;;18.30;;
9970;SDS011;5026;51.494;11.974;2022-12-18T04:16:14;46.37;;;18.03;;
9970;SDS011;5026;51.494;11.974;2022-12-18T04:18:43;25.80;;;11.23;;
9970;SDS011;5026;51.494;11.974;2022-12-18T04:21:10;28.80;;;11.90;;
9970;SDS011;5026;51.494;11.974;2022-12-18T04:23:37;39.47;;;17.40;;
9970;SDS011;5026;51.494;11.974;2022-12-18T04:26:04;39.30;;;15.67;;
9970;SDS011;5026;51.494;11.974;2022-12-18T04:28:31;40.53;;;16.13;;
9970;SDS011;5026;51.494;11.974;2022-12-18T04:30:58;41.20;;;17.67;;
9970;SDS011;5026;51.494;11.974;2022-12-18T04:33:25;45.73;;;18.87;;
9970;SDS011;5026;51.494;11.974;2022-12-18T04:35:53;48.10;;;17.73;;
9970;SDS011;5026;51.494;11.974;2022-12-18T04:38:20;43.67;;;13.43;;
9970;SDS011;5026;51.494;11.974;2022-12-18T04:40:48;50.43;;;17.93;;
9970;SDS011;5026;51.494;11.974;2022-12-18T04:43:15;38.40;;;17.77;;
9970;SDS011;5026;51.494;11.974;2022-12-18T04:45:42;47.33;;;17.23;;
9970;SDS011;5026;51.494;11.974;2022-12-18T04:48:08;39.27;;;16.03;;
9970;SDS011;5026;51.494;11.974;2022-12-18T04:50:36;42.43;;;17.57;;
9970;SDS011;5026;51.494;11.974;2022-12-18T04:53:04;39.70;;;15.60;;
9970;SDS011;5026;51.494;11.974;2022-12-18T04:55:31;41.17;;;16.23;;
9970;SDS011;5026;51.494;11.974;2022-12-18T04:57:58;44.80;;;16.63;;
9970;SDS011;5026;51.494;11.974;2022-12-18T05:00:25;46.03;;;16.83;;
9970;SDS011;5026;51.494;11.974;2022-12-18T05:02:52;41.77;;;16.97;;
9970;SDS011;5026;51.494;11.974;2022-12-18T05:05:19;36.93;;;13.63;;
9970;SDS011;5026;51.494;11.974;2022-12-18T05:07:47;34.00;;;14.47;;
9970;SDS011;5026;51.494;11.974;2022-12-18T05:10:15;36.93;;;16.90;;
9970;SDS011;5026;51.494;11.974;2022-12-18T05:12:42;44.43;;;16.80;;
9970;SDS011;5026;51.494;11.974;2022-12-18T05:15:24;41.80;;;15.93;;
9970;SDS011;5026;51.494;11.974;2022-12-18T05:17:52;44.87;;;16.53;;
9970;SDS011;5026;51.494;11.974;2022-12-18T05:20:19;44.57;;;17.17;;
9970;SDS011;5026;51.494;11.974;2022-12-18T05:22:47;37.60;;;15.17;;
9970;SDS011;5026;51.494;11.974;2022-12-18T05:25:15;50.67;;;18.10;;
9970;SDS011;5026;51.494;11.974;2022-12-18T05:27:42;47.60;;;16.97;;
9970;SDS011;5026;51.494;11.974;2022-12-18T05:30:10;41.87;;;17.47;;
9970;SDS011;5026;51.494;11.974;2022-12-18T05:32:38;41.47;;;15.97;;
9970;SDS011;5026;51.494;11.974;2022-12-18T05:35:06;43.10;;;17.87;;
9970;SDS011;5026;51.494;11.974;2022-12-18T05:37:34;54.93;;;19.13;;
9970;SDS011;5026;51.494;11.974;2022-12-18T05:40:01;39.67;;;15.37;;
9970;SDS011;5026;51.494;11.974;2022-12-18T05:42:30;47.77;;;17.40;;
9970;SDS011;5026;51.494;11.974;2022-12-18T05:44:57;35.77;;;15.03;;
9970;SDS011;5026;51.494;11.974;2022-12-18T05:47:24;42.23;;;17.00;;
9970;SDS011;5026;51.494;11.974;2022-12-18T05:49:51;33.93;;;16.20;;
9970;SDS011;5026;51.494;11.974;2022-12-18T05:52:18;35.70;;;13.37;;
9970;SDS011;5026;51.494;11.974;2022-12-18T05:54:45;34.33;;;14.37;;
9970;SDS011;5026;51.494;11.974;2022-12-18T05:57:12;42.47;;;14.90;;
9970;SDS011;5026;51.494;11.974;2022-12-18T05:59:40;38.20;;;15.73;;
9970;SDS011;5026;51.494;11.974;2022-12-18T06:02:07;48.90;;;17.47;;
9970;SDS011;5026;51.494;11.974;2022-12-18T06:04:34;43.10;;;17.20;;
9970;SDS011;5026;51.494;11.974;2022-12-18T06:07:01;45.67;;;17.83;;
9970;SDS011;5026;51.494;11.974;2022-12-18T06:09:28;46.60;;;17.67;;
9970;SDS011;5026;51.494;11.974;2022-12-18T06:11:55;45.73;;;18.23;;
9970;SDS011;5026;51.494;11.974;2022-12-18T06:14:23;43.83;;;17.47;;
9970;SDS011;5026;51.494;11.974;2022-12-18T06:16:51;50.40;;;18.10;;
9970;SDS011;5026;51.494;11.974;2022-12-18T06:19:18;47.83;;;18.93;;
9970;SDS011;5026;51.494;11.974;2022-12-18T06:21:46;43.53;;;17.43;;
9970;SDS011;5026;51.494;11.974;2022-12-18T06:24:14;45.03;;;16.07;;
9970;SDS011;5026;51.494;11.974;2022-12-18T06:26:41;39.27;;;15.67;;
9970;SDS011;5026;51.494;11.974;2022-12-18T06:29:08;26.60;;;14.27;;
9970;SDS011;5026;51.494;11.974;2022-12-18T06:31:35;39.07;;;16.00;;
9970;SDS011;5026;51.494;11.974;2022-12-18T06:34:04;36.53;;;14.30;;
9970;SDS011;5026;51.494;11.974;2022-12-18T06:36:31;17.43;;;9.57;;
9970;SDS011;5026;51.494;11.974;2022-12-18T06:38:58;30.83;;;13.43;;
9970;SDS011;5026;51.494;11.974;2022-12-18T06:41:26;22.53;;;11.00;;
9970;SDS011;5026;51.494;11.974;2022-12-18T06:43:53;34.03;;;14.83;;
9970;SDS011;5026;51.494;11.974;2022-12-18T06:46:20;31.93;;;12.27;;
9970;SDS011;5026;51.494;11.974;2022-12-18T06:48:48;27.43;;;13.57;;
9970;SDS011;5026;51.494;11.974;2022-12-18T06:51:18;28.57;;;11.83;;
9970;SDS011;5026;51.494;11.974;2022-12-18T06:53:46;28.17;;;12.93;;
9970;SDS011;5026;51.494;11.974;2022-12-18T06:56:14;28.63;;;12.60;;
9970;SDS011;5026;51.494;11.974;2022-12-18T06:58:41;29.83;;;14.70;;
9970;SDS011;5026;51.494;11.974;2022-12-18T07:01:09;22.53;;;10.50;;
9970;SDS011;5026;51.494;11.974;2022-12-18T07:03:37;23.90;;;11.03;;
9970;SDS011;5026;51.494;11.974;2022-12-18T07:06:05;23.87;;;9.83;;
9970;SDS011;5026;51.494;11.974;2022-12-18T07:08:33;23.50;;;11.00;;
9970;SDS011;5026;51.494;11.974;2022-12-18T07:11:02;27.27;;;12.07;;
9970;SDS011;5026;51.494;11.974;2022-12-18T07:13:30;32.40;;;12.00;;
9970;SDS011;5026;51.494;11.974;2022-12-18T07:16:02;34.20;;;13.67;;
9970;SDS011;5026;51.494;11.974;2022-12-18T07:18:31;28.90;;;12.83;;
9970;SDS011;5026;51.494;11.974;2022-12-18T07:20:58;23.30;;;12.63;;
9970;SDS011;5026;51.494;11.974;2022-12-18T07:23:29;29.97;;;12.07;;
9970;SDS011;5026;51.494;11.974;2022-12-18T07:26:01;23.77;;;10.90;;
9970;SDS011;5026;51.494;11.974;2022-12-18T07:28:29;22.97;;;10.27;;
9970;SDS011;5026;51.494;11.974;2022-12-18T07:30:56;25.03;;;11.33;;
9970;SDS011;5026;51.494;11.974;2022-12-18T07:33:24;32.00;;;13.47;;
9970;SDS011;5026;51.494;11.974;2022-12-18T07:35:51;44.20;;;16.77;;
9970;SDS011;5026;51.494;11.974;2022-12-18T07:38:18;39.53;;;17.40;;
9970;SDS011;5026;51.494;11.974;2022-12-18T07:40:45;39.33;;;17.70;;
9970;SDS011;5026;51.494;11.974;2022-12-18T07:43:15;43.17;;;17.77;;
9970;SDS011;5026;51.494;11.974;2022-12-18T07:45:42;36.73;;;16.73;;
9970;SDS011;5026;51.494;11.974;2022-12-18T07:48:09;39.33;;;17.83;;
9970;SDS011;5026;51.494;11.974;2022-12-18T07:50:36;43.00;;;18.13;;
9970;SDS011;5026;51.494;11.974;2022-12-18T07:53:03;41.07;;;18.47;;
9970;SDS011;5026;51.494;11.974;2022-12-18T07:55:30;43.37;;;19.17;;
9970;SDS011;5026;51.494;11.974;2022-12-18T07:58:00;43.73;;;18.00;;
9970;SDS011;5026;51.494;11.974;2022-12-18T08:00:29;41.03;;;17.10;;
9970;SDS011;5026;51.494;11.974;2022-12-18T08:02:57;39.67;;;17.67;;
9970;SDS011;5026;51.494;11.974;2022-12-18T08:05:24;44.80;;;16.93;;
9970;SDS011;5026;51.494;11.974;2022-12-18T08:07:51;38.07;;;17.73;;
9970;SDS011;5026;51.494;11.974;2022-12-18T08:10:19;43.83;;;17.57;;
9970;SDS011;5026;51.494;11.974;2022-12-18T08:12:48;42.17;;;16.63;;
9970;SDS011;5026;51.494;11.974;2022-12-18T08:15:16;35.93;;;16.77;;
9970;SDS011;5026;51.494;11.974;2022-12-18T08:17:44;40.67;;;17.67;;
9970;SDS011;5026;51.494;11.974;2022-12-18T08:20:11;42.10;;;18.03;;
9970;SDS011;5026;51.494;11.974;2022-12-18T08:22:39;34.63;;;17.43;;
9970;SDS011;5026;51.494;11.974;2022-12-18T08:25:07;38.83;;;16.13;;
9970;SDS011;5026;51.494;11.974;2022-12-18T08:27:35;35.23;;;16.00;;
9970;SDS011;5026;51.494;11.974;2022-12-18T08:30:02;39.63;;;17.97;;
9970;SDS011;5026;51.494;11.974;2022-12-18T08:32:30;42.37;;;19.33;;
9970;SDS011;5026;51.494;11.974;2022-12-18T08:34:59;40.57;;;20.37;;
9970;SDS011;5026;51.494;11.974;2022-12-18T08:37:26;48.10;;;22.53;;
9970;SDS011;5026;51.494;11.974;2022-12-18T08:39:52;45.80;;;20.10;;
9970;SDS011;5026;51.494;11.974;2022-12-18T08:42:19;40.93;;;21.90;;
9970;SDS011;5026;51.494;11.974;2022-12-18T08:45:04;41.20;;;19.93;;
9970;SDS011;5026;51.494;11.974;2022-12-18T08:47:31;40.03;;;18.87;;
9970;SDS011;5026;51.494;11.974;2022-12-18T08:49:59;37.73;;;19.20;;
9970;SDS011;5026;51.494;11.974;2022-12-18T08:52:26;37.60;;;19.43;;
9970;SDS011;5026;51.494;11.974;2022-12-18T08:54:53;37.37;;;18.90;;
9970;SDS011;5026;51.494;11.974;2022-12-18T08:57:20;32.00;;;14.10;;
9970;SDS011;5026;51.494;11.974;2022-12-18T08:59:47;28.77;;;12.80;;
9970;SDS011;5026;51.494;11.974;2022-12-18T09:02:14;25.37;;;12.40;;
9970;SDS011;5026;51.494;11.974;2022-12-18T09:04:41;26.17;;;12.70;;
9970;SDS011;5026;51.494;11.974;2022-12-18T09:07:09;27.90;;;12.63;;
9970;SDS011;5026;51.494;11.974;2022-12-18T09:09:36;29.20;;;13.40;;
9970;SDS011;5026;51.494;11.974;2022-12-18T09:12:03;20.57;;;9.90;;
9970;SDS011;5026;51.494;11.974;2022-12-18T09:14:30;23.53;;;11.43;;
9970;SDS011;5026;51.494;11.974;2022-12-18T09:16:57;13.80;;;6.17;;
9970;SDS011;5026;51.494;11.974;2022-12-18T09:19:24;11.67;;;6.93;;
9970;SDS011;5026;51.494;11.974;2022-12-18T09:21:50;16.50;;;8.10;;
9970;SDS011;5026;51.494;11.974;2022-12-18T09:24:19;9.23;;;5.83;;
9970;SDS011;5026;51.494;11.974;2022-12-18T09:26:46;15.07;;;6.70;;
9970;SDS011;5026;51.494;11.974;2022-12-18T09:29:13;19.93;;;8.13;;
9970;SDS011;5026;51.494;11.974;2022-12-18T09:31:40;16.27;;;7.97;;
9970;SDS011;5026;51.494;11.974;2022-12-18T09:34:07;22.33;;;9.57;;
9970;SDS011;5026;51.494;11.974;2022-12-18T09:36:34;25.67;;;10.93;;
9970;SDS011;5026;51.494;11.974;2022-12-18T09:39:01;26.50;;;12.23;;
9970;SDS011;5026;51.494;11.974;2022-12-18T09:41:35;25.73;;;11.83;;
9970;SDS011;5026;51.494;11.974;2022-12-18T09:44:11;19.73;;;11.60;;
9970;SDS011;5026;51.494;11.974;2022-12-18T09:46:46;15.80;;;9.00;;
9970;SDS011;5026;51.494;11.974;2022-12-18T09:49:17;13.47;;;7.37;;
9970;SDS011;5026;51.494;11.974;2022-12-18T09:51:49;23.23;;;10.97;;
9970;SDS011;5026;51.494;11.974;2022-12-18T09:54:21;24.13;;;11.57;;
9970;SDS011;5026;51.494;11.974;2022-12-18T09:56:53;25.17;;;12.13;;
9970;SDS011;5026;51.494;11.974;2022-12-18T09:59:21;19.47;;;10.47;;
9970;SDS011;5026;51.494;11.974;2022-12-18T10:01:50;24.10;;;11.27;;
9970;SDS011;5026;51.494;11.974;2022-12-18T10:04:17;19.13;;;10.37;;
9970;SDS011;5026;51.494;11.974;2022-12-18T10:06:46;23.50;;;11.07;;
9970;SDS011;5026;51.494;11.974;2022-12-18T10:09:22;18.00;;;10.07;;
9970;SDS011;5026;51.494;11.974;2022-12-18T10:11:57;19.57;;;10.13;;
9970;SDS011;5026;51.494;11.974;2022-12-18T10:14:34;16.13;;;9.63;;
9970;SDS011;5026;51.494;11.974;2022-12-18T10:17:09;11.40;;;6.40;;
9970;SDS011;5026;51.494;11.974;2022-12-18T10:19:45;17.57;;;8.07;;
9970;SDS011;5026;51.494;11.974;2022-12-18T10:22:19;13.00;;;6.83;;
9970;SDS011;5026;51.494;11.974;2022-12-18T10:24:55;18.83;;;9.07;;
9970;SDS011;5026;51.494;11.974;2022-12-18T10:27:29;19.30;;;7.80;;
9970;SDS011;5026;51.494;11.974;2022-12-18T10:29:57;11.17;;;5.47;;
9970;SDS011;5026;51.494;11.974;2022-12-18T10:32:25;19.27;;;8.20;;
9970;SDS011;5026;51.494;11.974;2022-12-18T10:34:53;13.40;;;7.53;;
9970;SDS011;5026;51.494;11.974;2022-12-18T10:37:23;19.73;;;8.93;;
9970;SDS011;5026;51.494;11.974;2022-12-18T10:40:04;14.00;;;7.93;;
9970;SDS011;5026;51.494;11.974;2022-12-18T10:42:35;19.23;;;8.00;;
9970;SDS011;5026;51.494;11.974;2022-12-18T10:45:03;17.80;;;9.13;;
9970;SDS011;5026;51.494;11.974;2022-12-18T10:47:36;8.50;;;5.23;;
9970;SDS011;5026;51.494;11.974;2022-12-18T10:50:03;17.83;;;7.80;;
9970;SDS011;5026;51.494;11.974;2022-12-18T10:52:31;13.77;;;6.67;;
9970;SDS011;5026;51.494;11.974;2022-12-18T10:54:58;14.20;;;7.10;;
9970;SDS011;5026;51.494;11.974;2022-12-18T10:57:32;14.83;;;8.27;;
9970;SDS011;5026;51.494;11.974;2022-12-18T11:02:49;18.70;;;8.63;;
9970;SDS011;5026;51.494;11.974;2022-12-18T11:05:23;24.50;;;8.40;;
9970;SDS011;5026;51.494;11.974;2022-12-18T11:07:55;16.97;;;8.97;;
9970;SDS011;5026;51.494;11.974;2022-12-18T11:10:26;11.73;;;6.00;;
9970;SDS011;5026;51.494;11.974;2022-12-18T11:13:08;15.97;;;9.50;;
9970;SDS011;5026;51.494;11.974;2022-12-18T11:15:44;10.40;;;6.00;;
9970;SDS011;5026;51.494;11.974;2022-12-18T11:18:16;15.87;;;7.83;;
9970;SDS011;5026;51.494;11.974;2022-12-18T11:20:50;9.07;;;6.30;;
9970;SDS011;5026;51.494;11.974;2022-12-18T11:23:18;19.03;;;9.10;;
9970;SDS011;5026;51.494;11.974;2022-12-18T11:25:58;19.20;;;9.13;;
9970;SDS011;5026;51.494;11.974;2022-12-18T11:28:28;19.50;;;8.77;;
9970;SDS011;5026;51.494;11.974;2022-12-18T11:31:16;15.33;;;8.80;;
9970;SDS011;5026;51.494;11.974;2022-12-18T11:33:56;14.97;;;8.53;;
9970;SDS011;5026;51.494;11.974;2022-12-18T11:36:29;15.50;;;8.70;;
9970;SDS011;5026;51.494;11.974;2022-12-18T11:39:01;16.60;;;9.37;;
9970;SDS011;5026;51.494;11.974;2022-12-18T11:41:37;13.13;;;6.63;;
9970;SDS011;5026;51.494;11.974;2022-12-18T11:44:28;10.70;;;7.03;;
9970;SDS011;5026;51.494;11.974;2022-12-18T11:47:03;10.93;;;6.70;;
9970;SDS011;5026;51.494;11.974;2022-12-18T11:49:36;22.23;;;8.67;;
9970;SDS011;5026;51.494;11.974;2022-12-18T11:52:07;15.03;;;8.03;;
9970;SDS011;5026;51.494;11.974;2022-12-18T11:54:38;15.83;;;7.60;;
9970;SDS011;5026;51.494;11.974;2022-12-18T11:57:06;18.63;;;8.60;;
9970;SDS011;5026;51.494;11.974;2022-12-18T11:59:47;14.70;;;7.60;;
9970;SDS011;5026;51.494;11.974;2022-12-18T12:02:25;13.80;;;7.90;;
9970;SDS011;5026;51.494;11.974;2022-12-18T12:07:59;14.53;;;8.13;;
9970;SDS011;5026;51.494;11.974;2022-12-18T12:10:33;16.43;;;8.73;;
9970;SDS011;5026;51.494;11.974;2022-12-18T12:13:13;17.03;;;8.40;;
9970;SDS011;5026;51.494;11.974;2022-12-18T12:15:52;15.70;;;8.20;;
9970;SDS011;5026;51.494;11.974;2022-12-18T12:18:40;17.47;;;9.63;;
9970;SDS011;5026;51.494;11.974;2022-12-18T12:21:28;16.63;;;8.90;;
9970;SDS011;5026;51.494;11.974;2022-12-18T12:24:05;16.37;;;9.10;;
9970;SDS011;5026;51.494;11.974;2022-12-18T12:26:48;18.40;;;8.90;;
9970;SDS011;5026;51.494;11.974;2022-12-18T12:29:24;14.80;;;8.60;;
9970;SDS011;5026;51.494;11.974;2022-12-18T12:32:05;15.47;;;8.17;;
9970;SDS011;5026;51.494;11.974;2022-12-18T12:34:44;14.97;;;8.30;;
9970;SDS011;5026;51.494;11.974;2022-12-18T12:37:21;16.93;;;7.73;;
9970;SDS011;5026;51.494;11.974;2022-12-18T12:39:55;12.17;;;7.60;;
9970;SDS011;5026;51.494;11.974;2022-12-18T12:42:31;12.73;;;8.07;;
9970;SDS011;5026;51.494;11.974;2022-12-18T12:45:20;11.53;;;7.30;;
9970;SDS011;5026;51.494;11.974;2022-12-18T12:47:52;15.00;;;8.30;;
9970;SDS011;5026;51.494;11.974;2022-12-18T12:50:22;14.40;;;8.70;;
9970;SDS011;5026;51.494;11.974;2022-12-18T12:52:50;14.73;;;7.93;;
9970;SDS011;5026;51.494;11.974;2022-12-18T12:55:20;14.73;;;8.30;;
9970;SDS011;5026;51.494;11.974;2022-12-18T12:57:51;13.00;;;7.47;;
9970;SDS011;5026;51.494;11.974;2022-12-18T13:00:24;12.90;;;7.37;;
9970;SDS011;5026;51.494;11.974;2022-12-18T13:02:55;14.20;;;8.47;;
9970;SDS011;5026;51.494;11.974;2022-12-18T13:05:32;15.40;;;7.80;;
9970;SDS011;5026;51.494;11.974;2022-12-18T13:08:06;15.53;;;8.00;;
9970;SDS011;5026;51.494;11.974;2022-12-18T13:10:36;15.33;;;8.50;;
9970;SDS011;5026;51.494;11.974;2022-12-18T13:13:05;14.77;;;8.20;;
9970;SDS011;5026;51.494;11.974;2022-12-18T13:15:34;14.47;;;8.57;;
9970;SDS011;5026;51.494;11.974;2022-12-18T13:18:16;16.53;;;8.33;;
9970;SDS011;5026;51.494;11.974;2022-12-18T13:20:50;18.33;;;9.50;;
9970;SDS011;5026;51.494;11.974;2022-12-18T13:23:32;15.30;;;8.90;;
9970;SDS011;5026;51.494;11.974;2022-12-18T13:28:59;17.90;;;8.83;;
9970;SDS011;5026;51.494;11.974;2022-12-18T13:34:27;15.27;;;9.03;;
9970;SDS011;5026;51.494;11.974;2022-12-18T13:37:11;15.33;;;9.43;;
9970;SDS011;5026;51.494;11.974;2022-12-18T13:43:15;22.00;;;13.20;;
9970;SDS011;5026;51.494;11.974;2022-12-18T13:45:58;26.33;;;13.93;;
9970;SDS011;5026;51.494;11.974;2022-12-18T13:48:47;22.40;;;13.63;;
9970;SDS011;5026;51.494;11.974;2022-12-18T13:51:17;25.30;;;14.67;;
9970;SDS011;5026;51.494;11.974;2022-12-18T13:53:48;24.50;;;14.30;;
9970;SDS011;5026;51.494;11.974;2022-12-18T13:56:21;27.53;;;15.37;;
9970;SDS011;5026;51.494;11.974;2022-12-18T13:59:03;25.53;;;14.80;;
9970;SDS011;5026;51.494;11.974;2022-12-18T14:01:32;25.73;;;16.07;;
9970;SDS011;5026;51.494;11.974;2022-12-18T14:04:08;25.57;;;14.00;;
9970;SDS011;5026;51.494;11.974;2022-12-18T14:06:36;28.40;;;16.17;;
9970;SDS011;5026;51.494;11.974;2022-12-18T14:09:05;27.13;;;14.87;;
9970;SDS011;5026;51.494;11.974;2022-12-18T14:11:32;30.80;;;17.27;;
9970;SDS011;5026;51.494;11.974;2022-12-18T14:13:59;29.07;;;16.10;;
9970;SDS011;5026;51.494;11.974;2022-12-18T14:16:30;31.73;;;14.93;;
9970;SDS011;5026;51.494;11.974;2022-12-18T14:18:59;23.83;;;14.30;;
9970;SDS011;5026;51.494;11.974;2022-12-18T14:21:27;28.33;;;13.47;;
9970;SDS011;5026;51.494;11.974;2022-12-18T14:24:03;35.20;;;16.57;;
9970;SDS011;5026;51.494;11.974;2022-12-18T14:26:38;33.33;;;18.83;;
9970;SDS011;5026;51.494;11.974;2022-12-18T14:29:17;28.23;;;15.53;;
9970;SDS011;5026;51.494;11.974;2022-12-18T14:34:42;28.73;;;13.73;;
9970;SDS011;5026;51.494;11.974;2022-12-18T14:37:10;32.57;;;16.87;;
9970;SDS011;5026;51.494;11.974;2022-12-18T14:39:39;38.13;;;17.90;;
9970;SDS011;5026;51.494;11.974;2022-12-18T14:42:09;32.17;;;17.80;;
9970;SDS011;5026;51.494;11.974;2022-12-18T14:44:37;38.50;;;18.47;;
9970;SDS011;5026;51.494;11.974;2022-12-18T14:47:04;31.40;;;15.40;;
9970;SDS011;5026;51.494;11.974;2022-12-18T14:49:31;30.50;;;17.50;;
9970;SDS011;5026;51.494;11.974;2022-12-18T14:52:02;30.60;;;17.17;;
9970;SDS011;5026;51.494;11.974;2022-12-18T14:54:32;30.97;;;16.87;;
9970;SDS011;5026;51.494;11.974;2022-12-18T14:57:03;36.93;;;16.97;;
9970;SDS011;5026;51.494;11.974;2022-12-18T14:59:31;30.73;;;17.13;;
9970;SDS011;5026;51.494;11.974;2022-12-18T15:02:00;32.53;;;17.97;;
9970;SDS011;5026;51.494;11.974;2022-12-18T15:04:30;39.90;;;21.52;;
9970;SDS011;5026;51.494;11.974;2022-12-18T15:07:08;43.97;;;18.63;;
9970;SDS011;5026;51.494;11.974;2022-12-18T15:09:39;37.23;;;19.07;;
9970;SDS011;5026;51.494;11.974;2022-12-18T15:12:22;40.27;;;18.77;;
9970;SDS011;5026;51.494;11.974;2022-12-18T15:14:54;36.20;;;17.93;;